Time;durP1;ratioP1;P1;durP2;ratioP2;P2;SDS_P1;SDS_P2;PMS_P1;PMS_P2;Temp;Humidity;BMP_temperature;BMP_pressure;BME280_temperature;BME280_humidity;BME280_pressure;Samples;Min_cycle;Max_cycle;Signal;HPM_P1;HPM_P2
2022/07/06 00:01:29;;;;;;;5.47;4.17;;;15.00;87.70;;;;;;2614440;54;20158;-76
2022/07/06 00:07:17;;;;;;;4.17;3.77;;;15.10;83.90;;;;;;2615657;46;20860;-76
2022/07/06 00:13:04;;;;;;;4.43;3.60;;;15.00;82.70;;;;;;2615038;54;20162;-77
2022/07/06 00:18:52;;;;;;;5.20;4.70;;;15.00;84.30;;;;;;2613088;54;20150;-76
2022/07/06 00:24:40;;;;;;;4.33;4.03;;;14.80;87.20;;;;;;2614995;54;20680;-76
2022/07/06 00:30:28;;;;;;;5.93;3.90;;;14.70;85.50;;;;;;2615119;54;20158;-76
2022/07/06 00:36:16;;;;;;;8.30;4.00;;;14.40;86.90;;;;;;2614988;54;20200;-76
2022/07/06 00:52:17;;;;;;;4.57;4.17;;;14.30;88.10;;;;;;2613339;54;20481;-75
2022/07/06 00:58:05;;;;;;;3.93;3.20;;;14.30;88.70;;;;;;2613047;54;20363;-75
2022/07/06 01:03:52;;;;;;;4.57;3.83;;;14.10;91.90;;;;;;2614070;54;20400;-76
2022/07/06 01:09:39;;;;;;;6.10;4.10;;;14.10;93.10;;;;;;2614126;39;20533;-76
2022/07/06 01:15:27;;;;;;;3.83;3.23;;;14.10;93.70;;;;;;2614126;54;20194;-76
2022/07/06 01:21:15;;;;;;;3.53;3.23;;;14.20;93.00;;;;;;2613486;54;21194;-76
2022/07/06 01:24:17;;;;;;;3.97;3.67;;;14.10;94.30;;;;;;2612383;54;20419;-76
2022/07/06 01:26:43;;;;;;;5.87;3.80;;;14.00;95.80;;;;;;2614627;54;20411;-76
2022/07/06 01:32:30;;;;;;;8.10;4.10;;;14.10;96.20;;;;;;2615494;54;20394;-76
2022/07/06 01:38:18;;;;;;;3.43;3.00;;;14.30;96.00;;;;;;2616077;54;20258;-77
2022/07/06 01:44:26;;;;;;;3.70;3.00;;;14.30;94.50;;;;;;2613667;47;20239;-76
2022/07/06 01:50:12;;;;;;;8.90;3.97;;;14.20;96.50;;;;;;2613675;54;20180;-76
2022/07/06 01:55:59;;;;;;;5.40;3.60;;;13.90;99.20;;;;;;2613429;54;20154;-77
2022/07/06 02:01:47;;;;;;;5.13;3.37;;;13.90;99.90;;;;;;2614210;31;20706;-75
2022/07/06 02:07:34;;;;;;;6.63;3.57;;;13.80;99.90;;;;;;2613569;54;20155;-76
2022/07/06 02:13:21;;;;;;;6.70;3.50;;;13.70;99.90;;;;;;2613758;47;20238;-76
2022/07/06 02:19:08;;;;;;;6.07;4.80;;;13.50;99.90;;;;;;2614717;54;20145;-76
2022/07/06 02:24:55;;;;;;;3.83;3.50;;;13.30;99.90;;;;;;2614968;39;20547;-76
2022/07/06 02:30:43;;;;;;;4.23;3.83;;;13.20;99.90;;;;;;2614851;54;20118;-76
2022/07/06 02:36:31;;;;;;;4.83;3.80;;;13.00;99.90;;;;;;2614939;54;20243;-76
2022/07/06 02:52:38;;;;;;;6.60;3.53;;;12.80;99.90;;;;;;2613133;54;20362;-74
2022/07/06 02:58:25;;;;;;;7.17;4.10;;;12.60;99.90;;;;;;2613390;39;20905;-73
2022/07/06 03:04:12;;;;;;;6.53;3.57;;;12.70;99.90;;;;;;2613401;39;20555;-74
2022/07/06 03:10:00;;;;;;;6.03;4.77;;;12.70;99.90;;;;;;2612788;54;20126;-73
2022/07/06 03:15:47;;;;;;;6.73;3.43;;;12.60;99.90;;;;;;2613313;54;20134;-73
2022/07/06 03:21:34;;;;;;;4.40;3.50;;;12.70;99.90;;;;;;2612812;54;20137;-73
2022/07/06 03:27:22;;;;;;;8.73;3.90;;;12.80;99.90;;;;;;2613708;54;20247;-73
2022/07/06 03:33:10;;;;;;;4.90;4.47;;;12.90;99.90;;;;;;2614437;54;20126;-73
2022/07/06 03:38:57;;;;;;;6.20;4.77;;;13.00;99.90;;;;;;2614547;54;20147;-73
2022/07/06 03:45:07;;;;;;;7.60;3.87;;;13.10;99.90;;;;;;2613352;54;20242;-73
2022/07/06 03:50:55;;;;;;;5.17;3.83;;;13.10;99.90;;;;;;2613943;54;20525;-73
2022/07/06 03:56:42;;;;;;;5.37;3.80;;;13.20;99.90;;;;;;2613719;54;20426;-72
2022/07/06 04:02:29;;;;;;;6.53;4.10;;;13.30;99.90;;;;;;2613832;54;20178;-73
2022/07/06 04:08:16;;;;;;;5.50;4.90;;;13.30;99.90;;;;;;2613288;54;20162;-73
2022/07/06 04:14:03;;;;;;;9.00;4.10;;;13.40;99.90;;;;;;2613192;54;21083;-73
2022/07/06 04:19:51;;;;;;;5.17;3.67;;;13.80;99.90;;;;;;2615120;54;20150;-73
2022/07/06 04:25:39;;;;;;;6.00;4.20;;;13.80;99.90;;;;;;2615348;54;20151;-73
2022/07/06 04:31:26;;;;;;;5.47;4.57;;;13.90;99.90;;;;;;2615135;54;20198;-74
2022/07/06 04:37:14;;;;;;;7.73;4.40;;;14.00;99.90;;;;;;2614835;54;20122;-73
2022/07/06 04:53:12;;;;;;;5.03;4.00;;;14.50;99.90;;;;;;2611623;54;20882;-75
2022/07/06 04:58:59;;;;;;;5.10;4.57;;;14.50;99.90;;;;;;2611096;54;20720;-75
2022/07/06 05:04:46;;;;;;;6.57;4.47;;;15.20;99.90;;;;;;2613241;54;20255;-75
2022/07/06 05:10:33;;;;;;;6.77;3.90;;;15.90;98.30;;;;;;2613501;54;20141;-74
2022/07/06 05:16:21;;;;;;;6.40;3.90;;;16.40;87.40;;;;;;2612421;54;20135;-75
2022/07/06 05:25:30;;;;;;;6.43;4.53;;;16.80;80.30;;;;;;2612236;54;20418;-75
2022/07/06 05:31:17;;;;;;;5.33;4.40;;;17.00;69.20;;;;;;2614647;39;20834;-74
2022/07/06 05:37:04;;;;;;;10.40;4.00;;;17.10;64.90;;;;;;2610724;54;20171;-74
2022/07/06 05:53:14;;;;;;;5.80;3.23;;;17.90;50.60;;;;;;2612538;54;20425;-75
2022/07/06 05:59:01;;;;;;;3.23;2.50;;;17.90;45.20;;;;;;2612150;39;20722;-74
2022/07/06 06:04:48;;;;;;;5.60;2.50;;;17.30;56.40;;;;;;2609846;54;20136;-75
2022/07/06 06:10:35;;;;;;;4.23;2.53;;;17.50;54.30;;;;;;2611849;54;20749;-75
2022/07/06 06:16:23;;;;;;;10.70;2.90;;;17.10;60.80;;;;;;2612180;54;20153;-76
2022/07/06 06:22:10;;;;;;;7.57;2.70;;;17.80;56.30;;;;;;2609838;54;20169;-75
2022/07/06 06:27:58;;;;;;;6.20;2.27;;;17.90;51.90;;;;;;2612416;54;20184;-76
2022/07/06 06:33:46;;;;;;;6.13;2.87;;;18.00;46.50;;;;;;2613546;54;20506;-75
2022/07/06 06:39:33;;;;;;;2.87;2.10;;;18.30;44.40;;;;;;2613104;54;20401;-74
2022/07/06 06:42:03;;;;;;;2.83;2.50;;;18.10;44.10;;;;;;2613840;31;21061;-75
2022/07/06 06:44:29;;;;;;;3.80;2.30;;;18.20;47.50;;;;;;2612623;54;20289;-74
2022/07/06 06:50:16;;;;;;;4.00;2.27;;;17.70;46.90;;;;;;2613663;54;20249;-75
2022/07/06 06:56:04;;;;;;;3.93;2.27;;;17.50;46.20;;;;;;2613460;54;20144;-75
2022/07/06 07:01:52;;;;;;;4.47;2.60;;;17.90;46.40;;;;;;2612188;54;20250;-74
2022/07/06 07:07:39;;;;;;;3.97;2.07;;;18.00;40.40;;;;;;2613547;39;20541;-75
2022/07/06 07:13:27;;;;;;;4.13;2.50;;;17.80;36.20;;;;;;2613187;54;20148;-75
2022/07/06 07:16:30;;;;;;;3.30;2.60;;;17.80;41.80;;;;;;2613488;39;20924;-76
2022/07/06 07:18:56;;;;;;;2.77;2.27;;;18.10;40.60;;;;;;2615660;46;20189;-75
2022/07/06 07:24:44;;;;;;;2.83;1.90;;;18.40;31.30;;;;;;2614282;54;20125;-74
2022/07/06 07:30:31;;;;;;;7.43;2.63;;;18.20;30.70;;;;;;2614844;54;20142;-75
2022/07/06 07:36:19;;;;;;;4.40;2.20;;;18.30;30.60;;;;;;2615649;54;20170;-75
2022/07/06 07:42:07;;;;;;;2.80;2.10;;;18.80;25.60;;;;;;2614307;54;20132;-76
2022/07/06 07:47:55;;;;;;;4.53;2.43;;;19.10;19.00;;;;;;2614801;54;20124;-75
2022/07/06 07:53:42;;;;;;;3.13;2.83;;;20.00;9.90;;;;;;2612870;54;20178;-76
2022/07/06 07:59:30;;;;;;;2.53;2.20;;;19.70;10.10;;;;;;2613750;39;20373;-75
2022/07/06 08:05:18;;;;;;;3.90;2.60;;;19.30;10.50;;;;;;2614614;54;20126;-75
2022/07/06 08:11:07;;;;;;;2.87;2.60;;;20.20;3.80;;;;;;2614546;54;20247;-75
2022/07/06 08:16:55;;;;;;;4.80;2.50;;;19.90;7.10;;;;;;2613004;54;20403;-75
2022/07/06 08:22:43;;;;;;;4.20;2.37;;;21.60;1.00;;;;;;2613924;54;20932;-75
2022/07/06 08:28:31;;;;;;;4.40;3.10;;;20.90;1.00;;;;;;2614401;54;20130;-74
2022/07/06 08:34:18;;;;;;;3.33;2.50;;;20.60;1.00;;;;;;2612430;54;20154;-75
2022/07/06 08:40:07;;;;;;;2.60;2.40;;;20.60;1.00;;;;;;2615115;54;20139;-75
2022/07/06 08:45:56;;;;;;;2.67;2.47;;;20.90;1.00;;;;;;2615481;54;20386;-74
2022/07/06 08:51:45;;;;;;;2.50;2.30;;;19.90;1.00;;;;;;2615204;54;20431;-74
2022/07/06 08:57:33;;;;;;;2.43;2.23;;;19.70;1.00;;;;;;2615569;54;20351;-75
2022/07/06 09:03:21;;;;;;;2.87;2.63;;;20.60;1.00;;;;;;2615336;54;20455;-76
2022/07/06 09:09:09;;;;;;;3.13;2.83;;;20.90;1.00;;;;;;2615473;54;20137;-75
2022/07/06 09:14:57;;;;;;;3.47;2.50;;;20.50;1.00;;;;;;2614915;54;20465;-76
2022/07/06 09:20:47;;;;;;;15.80;5.00;;;20.30;1.00;;;;;;2614608;54;20388;-75
2022/07/06 09:26:35;;;;;;;3.20;2.63;;;19.80;1.00;;;;;;2614674;54;20403;-75
2022/07/06 09:32:22;;;;;;;4.33;3.13;;;20.60;1.00;;;;;;2615479;54;20363;-75
2022/07/06 09:38:13;;;;;;;2.97;2.77;;;21.10;1.00;;;;;;2614781;54;20147;-75
2022/07/06 09:47:22;;;;;;;3.60;3.10;;;20.50;1.00;;;;;;2613470;54;20442;-75
2022/07/06 09:53:11;;;;;;;3.47;2.90;;;20.90;1.00;;;;;;2614253;54;20138;-74
2022/07/06 09:58:59;;;;;;;2.63;2.50;;;21.00;1.00;;;;;;2614871;54;20401;-74
2022/07/06 10:04:48;;;;;;;6.33;3.27;;;21.50;1.00;;;;;;2615486;39;20213;-74
2022/07/06 10:10:39;;;;;;;3.50;3.00;;;23.50;1.00;;;;;;2615229;54;20387;-75
2022/07/06 10:16:26;;;;;;;2.87;2.67;;;22.30;1.00;;;;;;2614632;54;20367;-75
2022/07/06 10:22:15;;;;;;;3.80;3.33;;;21.70;1.00;;;;;;2614681;54;20138;-75
2022/07/06 10:28:03;;;;;;;3.30;3.10;;;21.70;1.00;;;;;;2614892;54;20371;-75
2022/07/06 10:33:52;;;;;;;4.87;3.30;;;21.90;1.00;;;;;;2614734;54;20359;-75
2022/07/06 10:42:53;;;;;;;4.60;3.63;;;22.80;1.00;;;;;;2614476;54;20466;-74
2022/07/06 10:51:48;;;;;;;4.23;3.90;;;22.20;1.00;;;;;;2613753;54;20376;-75
2022/07/06 11:11:16;;;;;;;4.20;3.80;;;21.80;1.00;;;;;;2614123;54;20511;-76
2022/07/06 11:20:39;;;;;;;3.83;3.40;;;23.90;1.00;;;;;;2614333;54;20375;-75
2022/07/06 11:26:27;;;;;;;4.43;3.40;;;23.50;1.00;;;;;;2612954;54;20393;-75
2022/07/06 11:32:14;;;;;;;3.50;3.20;;;22.30;1.00;;;;;;2614209;39;20789;-75
2022/07/06 11:41:24;;;;;;;4.80;3.10;;;20.90;1.00;;;;;;2614112;54;20406;-76
2022/07/06 11:47:12;;;;;;;5.90;3.40;;;20.70;1.00;;;;;;2614016;54;20503;-75
2022/07/06 11:53:00;;;;;;;5.83;3.73;;;22.90;1.00;;;;;;2613839;54;20935;-74
2022/07/06 11:58:49;;;;;;;4.37;3.97;;;24.50;1.00;;;;;;2615735;54;20151;-75
2022/07/06 12:04:40;;;;;;;6.53;4.20;;;24.80;1.00;;;;;;2615957;54;20419;-76
2022/07/06 12:10:34;;;;;;;4.40;3.93;;;24.40;1.00;;;;;;2615248;54;20393;-75
2022/07/06 12:16:29;;;;;;;5.97;3.87;;;23.20;1.00;;;;;;2614883;39;21087;-75
2022/07/06 12:29:05;;;;;;;3.93;3.63;;;25.40;1.00;;;;;;2612734;54;20454;-75
2022/07/06 12:48:09;;;;;;;4.00;3.80;;;23.80;1.00;;;;;;2611959;54;20657;-75
2022/07/06 12:54:12;;;;;;;4.00;3.73;;;24.40;1.00;;;;;;2613586;54;20183;-75
2022/07/06 13:00:00;;;;;;;4.23;3.93;;;23.80;1.00;;;;;;2613114;54;20384;-75
2022/07/06 13:05:50;;;;;;;3.80;3.50;;;24.50;1.00;;;;;;2614097;54;20960;-75
2022/07/06 13:11:37;;;;;;;4.33;3.93;;;24.70;1.00;;;;;;2613101;54;20431;-75
2022/07/06 13:17:25;;;;;;;5.37;4.50;;;24.00;1.00;;;;;;2613988;54;20230;-75
2022/07/06 13:23:13;;;;;;;4.17;3.97;;;24.10;1.00;;;;;;2614432;54;20126;-76
2022/07/06 13:29:03;;;;;;;4.53;4.20;;;25.30;1.00;;;;;;2614782;54;20622;-75
2022/07/06 13:34:51;;;;;;;4.97;4.47;;;25.40;1.00;;;;;;2614479;54;20909;-76
2022/07/06 13:40:39;;;;;;;5.17;4.67;;;23.90;1.00;;;;;;2614786;54;20156;-75
2022/07/06 13:56:40;;;;;;;4.27;3.90;;;22.50;1.00;;;;;;2613240;54;20527;-75
2022/07/06 14:02:27;;;;;;;4.50;4.10;;;22.30;1.00;;;;;;2612496;54;20947;-75
2022/07/06 14:08:14;;;;;;;5.67;4.10;;;22.50;1.00;;;;;;2613173;54;20234;-75
2022/07/06 14:14:02;;;;;;;4.17;3.77;;;23.20;1.00;;;;;;2613317;54;20174;-75
2022/07/06 14:19:49;;;;;;;3.70;3.40;;;22.90;1.00;;;;;;2612485;54;20123;-75
2022/07/06 14:25:37;;;;;;;4.00;3.70;;;23.10;1.00;;;;;;2613035;54;20395;-75
2022/07/06 14:34:45;;;;;;;6.40;3.73;;;23.40;1.00;;;;;;2613072;39;20659;-74
2022/07/06 14:40:34;;;;;;;8.13;4.50;;;23.20;1.00;;;;;;2612358;54;20641;-75
2022/07/06 15:06:56;;;;;;;3.83;3.23;;;22.70;1.00;;;;;;2612823;54;20412;-76
2022/07/06 15:12:43;;;;;;;4.50;3.60;;;22.90;1.00;;;;;;2611849;54;20257;-74
2022/07/06 15:18:30;;;;;;;4.13;3.80;;;23.70;1.00;;;;;;2610768;54;20123;-75
2022/07/06 15:24:18;;;;;;;5.23;4.60;;;23.00;1.00;;;;;;2612789;54;20133;-75
2022/07/06 15:30:05;;;;;;;3.60;3.30;;;24.10;1.00;;;;;;2613328;54;20178;-74
2022/07/06 15:35:52;;;;;;;5.60;4.40;;;23.20;1.00;;;;;;2613997;39;20822;-75
2022/07/06 15:41:40;;;;;;;4.33;3.93;;;22.80;1.00;;;;;;2615377;54;20126;-75
2022/07/06 15:50:51;;;;;;;4.40;4.10;;;23.80;1.00;;;;;;2615271;54;20968;-76
2022/07/06 15:56:39;;;;;;;5.33;5.07;;;24.60;1.00;;;;;;2614467;54;20407;-74
2022/07/06 16:02:26;;;;;;;10.20;4.53;;;23.60;1.00;;;;;;2612779;54;20158;-74
2022/07/06 16:08:14;;;;;;;6.43;4.57;;;23.90;1.00;;;;;;2614753;54;20203;-75
2022/07/06 16:14:02;;;;;;;4.10;3.80;;;23.70;1.00;;;;;;2614820;54;20138;-76
2022/07/06 16:19:50;;;;;;;5.33;4.37;;;23.00;1.00;;;;;;2612833;39;20578;-75
2022/07/06 16:25:37;;;;;;;4.20;3.40;;;23.20;1.00;;;;;;2613634;54;20243;-75
2022/07/06 16:31:24;;;;;;;4.57;4.17;;;23.10;1.00;;;;;;2613702;54;20138;-74
2022/07/06 16:40:32;;;;;;;3.53;3.30;;;22.90;1.00;;;;;;2613601;54;20395;-75
2022/07/06 16:53:03;;;;;;;3.60;3.30;;;24.00;1.00;;;;;;2613892;54;20387;-76
2022/07/06 16:58:50;;;;;;;5.80;3.73;;;23.60;1.00;;;;;;2615205;54;20142;-76
2022/07/06 17:04:38;;;;;;;4.53;4.20;;;23.30;1.00;;;;;;2614052;39;20576;-76
2022/07/06 17:10:26;;;;;;;5.03;4.47;;;23.30;1.00;;;;;;2614306;54;20234;-75
2022/07/06 17:16:14;;;;;;;4.73;4.37;;;22.70;1.00;;;;;;2613238;54;20130;-75
2022/07/06 17:22:02;;;;;;;5.67;4.37;;;22.30;1.00;;;;;;2613553;47;20395;-74
2022/07/06 17:27:50;;;;;;;5.23;4.40;;;22.00;1.00;;;;;;2615491;54;20182;-75
2022/07/06 17:33:37;;;;;;;4.07;3.73;;;21.80;1.00;;;;;;2615380;54;20235;-76
2022/07/06 17:39:25;;;;;;;4.67;4.20;;;21.60;1.00;;;;;;2615525;54;20195;-75
2022/07/06 17:45:13;;;;;;;4.27;3.70;;;21.50;1.00;;;;;;2614957;54;20130;-74
2022/07/06 17:51:00;;;;;;;3.70;3.40;;;21.50;1.00;;;;;;2614799;54;20177;-76
2022/07/06 18:00:20;;;;;;;3.60;3.40;;;21.50;1.00;;;;;;2613815;54;20439;-74
2022/07/06 18:06:08;;;;;;;3.80;3.50;;;21.50;1.00;;;;;;2613413;54;20150;-76
2022/07/06 18:11:55;;;;;;;3.50;3.30;;;21.50;1.00;;;;;;2613657;54;20162;-75
2022/07/06 18:17:42;;;;;;;3.63;3.30;;;21.50;1.00;;;;;;2613713;54;20130;-75
2022/07/06 18:23:30;;;;;;;3.60;3.30;;;21.20;1.00;;;;;;2613446;54;20503;-75
2022/07/06 18:29:17;;;;;;;3.23;2.93;;;21.30;1.00;;;;;;2613826;54;20243;-75
2022/07/06 18:35:05;;;;;;;3.00;2.80;;;21.20;1.00;;;;;;2614151;54;20177;-75
2022/07/06 18:40:53;;;;;;;3.23;3.00;;;21.20;1.00;;;;;;2615067;54;20440;-76
2022/07/06 18:46:41;;;;;;;3.57;3.27;;;21.10;1.00;;;;;;2614147;54;20138;-74
2022/07/06 18:52:46;;;;;;;3.07;2.80;;;21.10;1.00;;;;;;2611945;54;20157;-76
2022/07/06 18:58:33;;;;;;;3.60;2.77;;;20.80;1.00;;;;;;2613059;54;20141;-75
2022/07/06 19:04:20;;;;;;;3.37;2.57;;;20.50;1.00;;;;;;2613165;54;20137;-75
2022/07/06 19:10:11;;;;;;;4.60;2.87;;;20.30;1.00;;;;;;2613131;54;20648;-75
2022/07/06 19:13:14;;;;;;;2.97;2.77;;;20.20;1.00;;;;;;2612768;47;20432;-75
2022/07/06 19:15:40;;;;;;;5.57;3.03;;;20.20;1.00;;;;;;2613207;47;20424;-75
2022/07/06 19:21:28;;;;;;;4.53;3.07;;;20.30;1.00;;;;;;2613858;54;20176;-74
2022/07/06 19:27:15;;;;;;;4.00;2.80;;;20.30;1.00;;;;;;2614840;54;20419;-75
2022/07/06 19:33:03;;;;;;;4.87;3.43;;;20.50;1.00;;;;;;2615361;54;20122;-74
2022/07/06 19:38:51;;;;;;;4.80;3.53;;;20.40;1.00;;;;;;2614219;54;20420;-74
2022/07/06 19:44:38;;;;;;;3.40;3.10;;;20.20;1.00;;;;;;2615391;39;20564;-75
2022/07/06 20:00:39;;;;;;;3.47;3.17;;;20.40;1.00;;;;;;2613280;54;20383;-74
2022/07/06 20:06:27;;;;;;;3.30;3.03;;;20.30;1.00;;;;;;2612876;54;20850;-75
2022/07/06 20:12:14;;;;;;;4.00;3.50;;;20.30;1.00;;;;;;2613395;54;20281;-75
2022/07/06 20:18:02;;;;;;;8.50;4.47;;;20.20;1.00;;;;;;2613587;54;20167;-76
2022/07/06 20:23:50;;;;;;;7.90;5.80;;;20.20;1.00;;;;;;2613970;54;20398;-75
2022/07/06 20:29:38;;;;;;;7.53;5.00;;;20.20;1.00;;;;;;2613494;39;20535;-74
2022/07/06 20:35:26;;;;;;;14.43;4.30;;;20.10;1.00;;;;;;2614924;54;20402;-74
2022/07/06 20:41:14;;;;;;;4.73;3.57;;;20.00;1.00;;;;;;2613010;54;20939;-75
2022/07/06 20:47:02;;;;;;;5.23;3.47;;;20.00;1.00;;;;;;2616003;39;20894;-75
2022/07/06 20:53:06;;;;;;;5.33;3.53;;;20.00;1.00;;;;;;2613919;54;20642;-74
2022/07/06 20:58:53;;;;;;;3.90;3.40;;;19.90;1.00;;;;;;2614098;54;20675;-74
2022/07/06 21:04:40;;;;;;;7.63;3.60;;;19.70;1.00;;;;;;2613936;54;20240;-75
2022/07/06 21:10:28;;;;;;;8.50;4.57;;;19.90;1.00;;;;;;2613950;54;20154;-74
2022/07/06 21:16:15;;;;;;;5.93;3.50;;;19.80;1.00;;;;;;2613408;54;20492;-74
2022/07/06 21:22:02;;;;;;;6.00;4.30;;;19.90;1.00;;;;;;2612617;54;20238;-75
2022/07/06 21:27:50;;;;;;;3.87;3.47;;;19.80;1.00;;;;;;2614482;54;20402;-75
2022/07/06 21:33:38;;;;;;;8.37;3.60;;;19.80;1.00;;;;;;2615051;54;20130;-74
2022/07/06 21:39:26;;;;;;;4.30;3.90;;;19.60;1.20;;;;;;2615573;54;20278;-75
2022/07/06 21:45:14;;;;;;;6.60;4.30;;;19.60;1.80;;;;;;2614886;54;20399;-75
2022/07/06 22:01:14;;;;;;;4.60;4.17;;;19.70;3.20;;;;;;2611571;54;20424;-74
2022/07/06 22:07:02;;;;;;;5.17;4.10;;;19.70;4.50;;;;;;2612397;54;20277;-75
2022/07/06 22:12:49;;;;;;;9.47;4.30;;;19.50;5.40;;;;;;2613462;54;20402;-74
2022/07/06 22:18:36;;;;;;;6.10;4.77;;;19.50;6.10;;;;;;2613147;46;20704;-75
2022/07/06 22:24:23;;;;;;;4.57;3.70;;;19.50;7.50;;;;;;2612500;54;20125;-75
2022/07/06 22:30:10;;;;;;;6.63;4.30;;;19.60;7.60;;;;;;2613111;54;20130;-74
2022/07/06 22:35:57;;;;;;;7.80;4.70;;;19.50;8.40;;;;;;2615326;39;20687;-74
2022/07/06 22:41:45;;;;;;;10.10;4.53;;;19.40;10.00;;;;;;2614248;54;20238;-74
2022/07/06 22:47:33;;;;;;;8.57;4.70;;;19.40;10.60;;;;;;2615355;39;20537;-74
2022/07/06 23:03:30;;;;;;;5.10;4.70;;;19.40;12.20;;;;;;2613458;39;20799;-75
2022/07/06 23:09:17;;;;;;;6.20;4.47;;;19.40;11.50;;;;;;2613663;54;20359;-75
2022/07/06 23:15:05;;;;;;;5.40;4.40;;;19.30;13.10;;;;;;2613662;54;20183;-75
2022/07/06 23:20:52;;;;;;;5.13;4.73;;;19.50;13.10;;;;;;2612662;54;20371;-75
2022/07/06 23:26:39;;;;;;;6.50;5.00;;;19.40;14.90;;;;;;2613699;54;20203;-74
2022/07/06 23:32:27;;;;;;;5.57;5.00;;;19.30;16.00;;;;;;2612985;54;20274;-75
2022/07/06 23:38:14;;;;;;;7.40;5.80;;;19.30;17.10;;;;;;2614951;31;20633;-75
2022/07/06 23:44:02;;;;;;;9.20;5.50;;;19.20;17.40;;;;;;2614692;54;20141;-75
2022/07/06 23:49:50;;;;;;;7.67;4.50;;;19.20;18.70;;;;;;2614716;54;20158;-75
